createdAt,value
2018-08-12T00:00:36.421Z,100685.00
2018-08-12T00:03:14.587Z,100685.00
2018-08-12T00:05:52.083Z,100689.00
2018-08-12T00:08:27.936Z,100688.00
2018-08-12T00:11:05.294Z,100691.00
2018-08-12T00:13:41.089Z,100686.00
2018-08-12T00:16:18.620Z,100685.00
2018-08-12T00:18:54.834Z,100686.00
2018-08-12T00:21:32.902Z,100687.00
2018-08-12T00:24:09.624Z,100691.00
2018-08-12T00:26:45.413Z,100687.00
2018-08-12T00:29:22.001Z,100686.00
2018-08-12T00:31:59.081Z,100687.00
2018-08-12T00:34:36.408Z,100681.00
2018-08-12T00:37:13.206Z,100679.00
2018-08-12T00:39:48.832Z,100675.00
2018-08-12T00:42:25.621Z,100680.00
2018-08-12T00:45:02.592Z,100685.00
2018-08-12T00:47:39.562Z,100682.00
2018-08-12T00:50:16.755Z,100680.00
2018-08-12T00:52:59.569Z,100676.00
2018-08-12T00:55:36.444Z,100668.00
2018-08-12T00:58:13.785Z,100677.00
2018-08-12T01:00:49.864Z,100669.00
2018-08-12T01:03:27.181Z,100672.00
2018-08-12T01:06:04.069Z,100674.00
2018-08-12T01:08:40.613Z,100676.00
2018-08-12T01:11:17.061Z,100674.00
2018-08-12T01:13:54.359Z,100670.00
2018-08-12T01:16:31.155Z,100669.00
2018-08-12T01:19:07.666Z,100673.00
2018-08-12T01:21:44.975Z,100670.00
2018-08-12T01:24:22.236Z,100667.00
2018-08-12T01:26:58.633Z,100664.00
2018-08-12T01:29:35.289Z,100669.00
2018-08-12T01:32:12.258Z,100673.00
2018-08-12T01:34:50.043Z,100666.00
2018-08-12T01:37:27.157Z,100670.00
2018-08-12T01:40:06.697Z,100669.00
2018-08-12T01:42:44.392Z,100666.00
2018-08-12T01:45:21.421Z,100665.00
2018-08-12T01:47:57.748Z,100664.00
2018-08-12T01:50:35.739Z,100662.00
2018-08-12T01:53:12.361Z,100662.00
2018-08-12T01:55:48.359Z,100667.00
2018-08-12T01:58:26.419Z,100667.00
2018-08-12T02:01:03.626Z,100660.00
2018-08-12T02:03:41.225Z,100669.00
2018-08-12T02:06:18.164Z,100670.00
2018-08-12T02:08:54.545Z,100670.00
2018-08-12T02:11:31.177Z,100673.00
2018-08-12T02:14:08.522Z,100673.00
2018-08-12T02:16:45.135Z,100668.00
2018-08-12T02:19:22.878Z,100670.00
2018-08-12T02:21:59.180Z,100667.00
2018-08-12T02:24:37.890Z,100664.00
2018-08-12T02:27:14.543Z,100671.00
2018-08-12T02:29:52.192Z,100676.00
2018-08-12T02:32:29.662Z,100672.00
2018-08-12T02:35:08.234Z,100673.00
2018-08-12T02:37:44.528Z,100666.00
2018-08-12T02:40:21.995Z,100662.00
2018-08-12T02:42:57.974Z,100666.00
2018-08-12T02:45:34.603Z,100668.00
2018-08-12T02:48:12.068Z,100666.00
2018-08-12T02:50:48.371Z,100664.00
2018-08-12T02:53:24.685Z,100659.00
2018-08-12T02:56:01.872Z,100662.00
2018-08-12T02:58:38.950Z,100657.00
2018-08-12T03:01:16.073Z,100656.00
2018-08-12T03:03:52.174Z,100652.00
2018-08-12T03:06:29.637Z,100643.00
2018-08-12T03:09:10.201Z,100640.00
2018-08-12T03:11:46.625Z,100641.00
2018-08-12T03:14:24.221Z,100644.00
2018-08-12T03:17:01.189Z,100640.00
2018-08-12T03:19:38.210Z,100638.00
2018-08-12T03:22:14.849Z,100638.00
2018-08-12T03:24:51.566Z,100634.00
2018-08-12T03:27:28.580Z,100626.00
2018-08-12T03:30:07.213Z,100627.00
2018-08-12T03:32:45.580Z,100623.00
2018-08-12T03:35:22.301Z,100624.00
2018-08-12T03:38:00.417Z,100625.00
2018-08-12T03:40:39.343Z,100622.00
2018-08-12T03:43:16.225Z,100617.00
2018-08-12T03:45:52.589Z,100614.00
2018-08-12T03:48:31.372Z,100617.00
2018-08-12T03:51:09.611Z,100613.00
2018-08-12T03:53:46.232Z,100616.00
2018-08-12T03:56:23.320Z,100614.00
2018-08-12T03:59:00.317Z,100612.00
2018-08-12T04:01:37.167Z,100610.00
2018-08-12T04:04:13.943Z,100610.00
2018-08-12T04:06:51.955Z,100616.00
2018-08-12T04:09:29.726Z,100617.00
2018-08-12T04:12:06.285Z,100618.00
2018-08-12T04:14:42.916Z,100619.00
2018-08-12T04:17:20.964Z,100619.00
2018-08-12T04:19:58.647Z,100617.00
2018-08-12T04:22:37.332Z,100619.00
2018-08-12T04:25:14.837Z,100620.00
2018-08-12T04:27:51.713Z,100612.00
2018-08-12T04:30:28.723Z,100616.00
2018-08-12T04:33:05.507Z,100613.00
2018-08-12T04:35:43.681Z,100616.00
2018-08-12T04:38:20.517Z,100609.00
2018-08-12T04:40:57.364Z,100608.00
2018-08-12T04:43:34.040Z,100607.00
2018-08-12T04:46:11.105Z,100610.00
2018-08-12T04:48:49.386Z,100607.00
2018-08-12T04:51:27.129Z,100607.00
2018-08-12T04:54:03.828Z,100600.00
2018-08-12T04:56:40.672Z,100602.00
2018-08-12T04:59:18.277Z,100597.00
2018-08-12T05:01:56.104Z,100597.00
2018-08-12T05:04:33.802Z,100599.00
2018-08-12T05:07:12.797Z,100602.00
2018-08-12T05:09:50.685Z,100604.00
2018-08-12T05:12:29.040Z,100607.00
2018-08-12T05:15:07.861Z,100607.00
2018-08-12T05:17:44.777Z,100600.00
2018-08-12T05:20:21.474Z,100602.00
2018-08-12T05:22:58.806Z,100597.00
2018-08-12T05:25:36.991Z,100592.00
2018-08-12T05:28:16.659Z,100590.00
2018-08-12T05:30:54.589Z,100593.00
2018-08-12T05:33:31.199Z,100591.00
2018-08-12T05:36:07.429Z,100586.00
2018-08-12T05:38:44.924Z,100584.00
2018-08-12T05:41:21.382Z,100577.00
2018-08-12T05:43:57.716Z,100578.00
2018-08-12T05:46:34.965Z,100575.00
2018-08-12T05:49:12.778Z,100580.00
2018-08-12T05:51:49.086Z,100578.00
2018-08-12T05:54:26.125Z,100578.00
2018-08-12T05:57:03.498Z,100574.00
2018-08-12T05:59:41.957Z,100571.00
2018-08-12T06:02:18.602Z,100566.00
2018-08-12T06:04:54.993Z,100566.00
2018-08-12T06:07:31.318Z,100570.00
2018-08-12T06:10:10.363Z,100555.00
2018-08-12T06:12:46.639Z,100558.00
2018-08-12T06:15:22.397Z,100556.00
2018-08-12T06:17:59.925Z,100552.00
2018-08-12T06:20:37.379Z,100557.00
2018-08-12T06:23:14.119Z,100544.00
2018-08-12T06:25:51.005Z,100547.00
2018-08-12T06:28:27.765Z,100542.00
2018-08-12T06:31:04.580Z,100541.00
2018-08-12T06:33:40.401Z,100534.00
2018-08-12T06:36:17.970Z,100533.00
2018-08-12T06:38:56.719Z,100530.00
2018-08-12T06:41:33.906Z,100524.00
2018-08-12T06:44:10.679Z,100525.00
2018-08-12T06:46:48.676Z,100517.00
2018-08-12T06:49:27.754Z,100519.00
2018-08-12T06:52:05.929Z,100513.00
2018-08-12T06:54:43.731Z,100512.00
2018-08-12T06:57:19.976Z,100510.00
2018-08-12T06:59:58.711Z,100512.00
2018-08-12T07:02:36.607Z,100513.00
2018-08-12T07:05:14.114Z,100511.00
2018-08-12T07:07:51.211Z,100507.00
2018-08-12T07:10:29.600Z,100503.00
2018-08-12T07:13:07.367Z,100505.00
2018-08-12T07:15:44.964Z,100509.00
2018-08-12T07:18:21.559Z,100503.00
2018-08-12T07:20:59.848Z,100501.00
2018-08-12T07:23:37.601Z,100493.00
2018-08-12T07:26:15.174Z,100487.00
2018-08-12T07:28:52.401Z,100488.00
2018-08-12T07:31:29.737Z,100481.00
2018-08-12T07:34:06.406Z,100484.00
2018-08-12T07:36:43.065Z,100480.00
2018-08-12T07:39:20.333Z,100478.00
2018-08-12T07:41:59.626Z,100470.00
2018-08-12T07:44:35.925Z,100469.00
2018-08-12T07:47:13.457Z,100469.00
2018-08-12T07:49:50.588Z,100469.00
2018-08-12T07:52:27.849Z,100473.00
2018-08-12T07:55:06.961Z,100470.00
2018-08-12T07:57:44.678Z,100462.00
2018-08-12T08:00:21.120Z,100459.00
2018-08-12T08:02:59.721Z,100455.00
2018-08-12T08:05:36.489Z,100450.00
2018-08-12T08:08:13.534Z,100448.00
2018-08-12T08:10:50.832Z,100449.00
2018-08-12T08:13:28.650Z,100445.00
2018-08-12T08:16:05.118Z,100432.00
2018-08-12T08:18:43.056Z,100438.00
2018-08-12T08:21:19.491Z,100436.00
2018-08-12T08:23:57.744Z,100428.00
2018-08-12T08:26:33.832Z,100429.00
2018-08-12T08:29:12.231Z,100432.00
2018-08-12T08:31:48.528Z,100428.00
2018-08-12T08:34:25.010Z,100427.00
2018-08-12T08:37:02.570Z,100423.00
2018-08-12T08:39:40.544Z,100421.00
2018-08-12T08:42:18.563Z,100419.00
2018-08-12T08:44:55.683Z,100418.00
2018-08-12T08:47:34.072Z,100417.00
2018-08-12T08:50:10.651Z,100413.00
2018-08-12T08:52:48.368Z,100411.00
2018-08-12T08:55:25.587Z,100416.00
2018-08-12T08:58:02.509Z,100406.00
2018-08-12T09:00:38.803Z,100405.00
2018-08-12T09:03:15.132Z,100401.00
2018-08-12T09:05:54.572Z,100397.00
2018-08-12T09:08:32.745Z,100388.00
2018-08-12T09:11:10.321Z,100383.00
2018-08-12T09:13:46.682Z,100385.00
2018-08-12T09:16:23.362Z,100384.00
2018-08-12T09:19:00.515Z,100381.00
2018-08-12T09:21:38.584Z,100376.00
2018-08-12T09:24:15.246Z,100371.00
2018-08-12T09:26:52.259Z,100381.00
2018-08-12T09:29:29.816Z,100372.00
2018-08-12T09:32:06.465Z,100369.00
2018-08-12T09:34:43.227Z,100372.00
2018-08-12T09:37:21.554Z,100369.00
2018-08-12T09:39:58.146Z,100369.00
2018-08-12T09:42:36.547Z,100369.00
2018-08-12T09:45:15.974Z,100362.00
2018-08-12T09:47:53.549Z,100360.00
2018-08-12T09:50:30.634Z,100356.00
2018-08-12T09:53:09.680Z,100350.00
2018-08-12T09:55:47.214Z,100341.00
2018-08-12T09:58:23.074Z,100341.00
2018-08-12T10:01:01.887Z,100342.00
2018-08-12T10:03:39.671Z,100333.00
2018-08-12T10:06:16.766Z,100330.00
2018-08-12T10:08:53.898Z,100331.00
2018-08-12T10:11:31.035Z,100329.00
2018-08-12T10:14:07.675Z,100321.00
2018-08-12T10:16:44.590Z,100319.00
2018-08-12T10:19:21.810Z,100319.00
2018-08-12T10:21:58.403Z,100308.00
2018-08-12T10:24:36.555Z,100311.00
2018-08-12T10:27:14.362Z,100299.00
2018-08-12T10:29:51.714Z,100300.00
2018-08-12T10:32:29.243Z,100299.00
2018-08-12T10:35:07.338Z,100302.00
2018-08-12T10:37:44.955Z,100293.00
2018-08-12T10:40:22.503Z,100286.00
2018-08-12T10:43:00.255Z,100292.00
2018-08-12T10:45:37.528Z,100288.00
2018-08-12T10:48:15.593Z,100292.00
2018-08-12T10:50:53.526Z,100286.00
2018-08-12T10:53:30.681Z,100277.00
2018-08-12T10:56:08.183Z,100278.00
2018-08-12T10:58:45.230Z,100270.00
2018-08-12T11:01:22.035Z,100269.00
2018-08-12T11:03:59.348Z,100259.00
2018-08-12T11:06:37.013Z,100263.00
2018-08-12T11:09:13.686Z,100251.00
2018-08-12T11:11:50.513Z,100250.00
2018-08-12T11:14:27.753Z,100256.00
2018-08-12T11:17:05.123Z,100247.00
2018-08-12T11:19:42.657Z,100240.00
2018-08-12T11:22:20.716Z,100243.00
2018-08-12T11:24:58.831Z,100243.00
2018-08-12T11:27:37.446Z,100240.00
2018-08-12T11:30:16.808Z,100222.00
2018-08-12T11:32:54.110Z,100223.00
2018-08-12T11:35:32.389Z,100214.00
2018-08-12T11:38:10.125Z,100210.00
2018-08-12T11:40:46.975Z,100206.00
2018-08-12T11:43:24.749Z,100210.00
2018-08-12T11:46:02.492Z,100213.00
2018-08-12T11:48:41.494Z,100212.00
2018-08-12T11:51:19.302Z,100206.00
2018-08-12T11:53:55.557Z,100204.00
2018-08-12T11:56:32.336Z,100203.00
2018-08-12T11:59:11.934Z,100197.00
2018-08-12T12:01:51.822Z,100188.00
2018-08-12T12:04:30.506Z,100187.00
2018-08-12T12:07:09.345Z,100193.00
2018-08-12T12:09:46.436Z,100187.00
2018-08-12T12:12:23.551Z,100192.00
2018-08-12T12:15:01.753Z,100183.00
2018-08-12T12:17:39.193Z,100176.00
2018-08-12T12:20:17.244Z,100171.00
2018-08-12T12:22:54.441Z,100164.00
2018-08-12T12:25:32.868Z,100159.00
2018-08-12T12:28:10.244Z,100168.00
2018-08-12T12:30:48.128Z,100153.00
2018-08-12T12:33:24.761Z,100149.00
2018-08-12T12:36:01.657Z,100146.00
2018-08-12T12:38:39.563Z,100150.00
2018-08-12T12:41:16.663Z,100144.00
2018-08-12T12:43:54.410Z,100139.00
2018-08-12T12:46:33.126Z,100138.00
2018-08-12T12:49:10.992Z,100125.00
2018-08-12T12:51:49.500Z,100135.00
2018-08-12T12:54:27.223Z,100130.00
2018-08-12T12:57:05.580Z,100125.00
2018-08-12T12:59:45.122Z,100114.00
2018-08-12T13:02:21.373Z,100112.00
2018-08-12T13:04:59.826Z,100099.00
2018-08-12T13:07:37.678Z,100099.00
2018-08-12T13:10:15.819Z,100092.00
2018-08-12T13:12:52.368Z,100089.00
2018-08-12T13:15:30.270Z,100095.00
2018-08-12T13:18:09.146Z,100090.00
2018-08-12T13:20:45.378Z,100077.00
2018-08-12T13:23:23.292Z,100075.00
2018-08-12T13:25:59.833Z,100066.00
2018-08-12T13:28:38.021Z,100065.00
2018-08-12T13:31:15.815Z,100058.00
2018-08-12T13:33:53.189Z,100057.00
2018-08-12T13:36:32.392Z,100051.00
2018-08-12T13:39:11.852Z,100057.00
2018-08-12T13:41:49.915Z,100049.00
2018-08-12T13:44:27.869Z,100047.00
2018-08-12T13:47:05.229Z,100036.00
2018-08-12T13:49:42.006Z,100036.00
2018-08-12T13:52:19.045Z,100030.00
2018-08-12T13:54:56.119Z,100028.00
2018-08-12T13:57:33.030Z,100027.00
2018-08-12T14:00:15.716Z,100016.00
2018-08-12T14:02:51.647Z,100016.00
2018-08-12T14:05:31.245Z,100014.00
2018-08-12T14:08:08.564Z,100016.00
2018-08-12T14:10:51.617Z,99999.00
2018-08-12T14:13:30.394Z,100000.00
2018-08-12T14:16:08.409Z,99991.00
2018-08-12T14:18:46.234Z,99986.00
2018-08-12T14:21:22.623Z,99982.00
2018-08-12T14:23:59.711Z,99975.00
2018-08-12T14:26:37.540Z,99976.00
2018-08-12T14:29:14.899Z,99974.00
2018-08-12T14:31:54.554Z,99962.00
2018-08-12T14:34:30.861Z,99955.00
2018-08-12T14:37:08.574Z,99956.00
2018-08-12T14:39:46.012Z,99948.00
2018-08-12T14:42:22.062Z,99945.00
2018-08-12T14:44:58.633Z,99933.00
2018-08-12T14:50:19.820Z,99913.00
2018-08-12T14:52:55.655Z,99919.00
2018-08-12T14:55:35.149Z,99920.00
2018-08-12T14:58:13.368Z,99918.00
2018-08-12T15:00:50.282Z,99915.00
2018-08-12T15:03:27.860Z,99916.00
2018-08-12T15:06:05.061Z,99911.00
2018-08-12T15:08:43.424Z,99905.00
2018-08-12T15:11:20.132Z,99906.00
2018-08-12T15:13:57.963Z,99899.00
2018-08-12T15:16:35.302Z,99898.00
2018-08-12T15:19:12.593Z,99897.00
2018-08-12T15:21:50.103Z,99886.00
2018-08-12T15:24:28.425Z,99885.00
2018-08-12T15:27:04.809Z,99882.00
2018-08-12T15:29:42.083Z,99879.00
2018-08-12T15:32:19.417Z,99878.00
2018-08-12T15:34:57.469Z,99871.00
2018-08-12T15:37:35.461Z,99873.00
2018-08-12T15:40:15.552Z,99860.00
2018-08-12T15:42:51.781Z,99869.00
2018-08-12T15:45:28.116Z,99863.00
2018-08-12T15:48:05.166Z,99856.00
2018-08-12T15:50:42.885Z,99856.00
2018-08-12T15:53:20.298Z,99849.00
2018-08-12T15:55:58.503Z,99843.00
2018-08-12T15:58:36.437Z,99843.00
2018-08-12T16:01:13.982Z,99844.00
2018-08-12T16:03:49.543Z,99845.00
2018-08-12T16:06:25.639Z,99847.00
2018-08-12T16:09:02.247Z,99846.00
2018-08-12T16:11:40.180Z,99843.00
2018-08-12T16:14:18.723Z,99840.00
2018-08-12T16:16:55.704Z,99835.00
2018-08-12T16:19:32.924Z,99827.00
2018-08-12T16:22:10.100Z,99823.00
2018-08-12T16:24:46.940Z,99825.00
2018-08-12T16:27:23.245Z,99814.00
2018-08-12T16:30:01.047Z,99817.00
2018-08-12T16:32:37.614Z,99814.00
2018-08-12T16:35:15.152Z,99804.00
2018-08-12T16:37:52.096Z,99805.00
2018-08-12T16:40:28.162Z,99802.00
2018-08-12T16:43:04.478Z,99798.00
2018-08-12T16:45:40.821Z,99797.00
2018-08-12T16:48:17.235Z,99800.00
2018-08-12T16:50:54.258Z,99796.00
2018-08-12T16:53:30.252Z,99791.00
2018-08-12T16:56:07.284Z,99788.00
2018-08-12T16:58:43.954Z,99790.00
2018-08-12T17:01:20.638Z,99782.00
2018-08-12T17:03:56.939Z,99782.00
2018-08-12T17:06:33.701Z,99782.00
2018-08-12T17:09:13.013Z,99777.00
2018-08-12T17:11:49.421Z,99774.00
2018-08-12T17:14:26.233Z,99771.00
2018-08-12T17:17:02.841Z,99768.00
2018-08-12T17:19:40.740Z,99760.00
2018-08-12T17:22:17.038Z,99763.00
2018-08-12T17:24:54.660Z,99761.00
2018-08-12T17:27:31.785Z,99756.00
2018-08-12T17:30:12.118Z,99755.00
2018-08-12T17:32:49.916Z,99756.00
2018-08-12T17:35:25.793Z,99754.00
2018-08-12T17:38:04.656Z,99752.00
2018-08-12T17:40:40.910Z,99747.00
2018-08-12T17:43:17.684Z,99747.00
2018-08-12T17:45:56.056Z,99750.00
2018-08-12T17:48:33.245Z,99742.00
2018-08-12T17:51:10.014Z,99741.00
2018-08-12T17:53:47.576Z,99747.00
2018-08-12T17:56:24.569Z,99745.00
2018-08-12T17:59:02.914Z,99748.00
2018-08-12T18:01:40.543Z,99743.00
2018-08-12T18:04:18.699Z,99747.00
2018-08-12T18:06:55.892Z,99746.00
2018-08-12T18:09:32.297Z,99747.00
2018-08-12T18:12:08.898Z,99747.00
2018-08-12T18:14:46.435Z,99743.00
2018-08-12T18:17:23.460Z,99747.00
2018-08-12T18:20:01.331Z,99742.00
2018-08-12T18:22:39.625Z,99744.00
2018-08-12T18:25:16.257Z,99745.00
2018-08-12T18:27:54.173Z,99741.00
2018-08-12T18:30:30.533Z,99747.00
2018-08-12T18:33:07.272Z,99744.00
2018-08-12T18:35:45.769Z,99742.00
2018-08-12T18:38:23.994Z,99746.00
2018-08-12T18:41:01.549Z,99751.00
2018-08-12T18:43:38.420Z,99753.00
2018-08-12T18:46:16.741Z,99753.00
2018-08-12T18:48:54.017Z,99755.00
2018-08-12T18:51:32.324Z,99753.00
2018-08-12T18:54:08.406Z,99758.00
2018-08-12T18:56:46.785Z,99760.00
2018-08-12T18:59:24.009Z,99758.00
2018-08-12T19:02:02.238Z,99752.00
2018-08-12T19:04:39.085Z,99758.00
2018-08-12T19:07:16.554Z,99749.00
2018-08-12T19:09:53.283Z,99751.00
2018-08-12T19:12:31.147Z,99749.00
2018-08-12T19:15:10.229Z,99748.00
2018-08-12T19:17:47.816Z,99743.00
2018-08-12T19:20:23.748Z,99738.00
2018-08-12T19:23:01.360Z,99737.00
2018-08-12T19:25:37.537Z,99738.00
2018-08-12T19:28:14.870Z,99735.00
2018-08-12T19:30:52.129Z,99736.00
2018-08-12T19:33:43.374Z,99736.00
2018-08-12T19:36:21.222Z,99733.00
2018-08-12T19:38:57.737Z,99729.00
2018-08-12T19:41:35.080Z,99731.00
2018-08-12T19:44:12.033Z,99736.00
2018-08-12T19:46:50.072Z,99736.00
2018-08-12T19:49:26.669Z,99734.00
2018-08-12T19:52:04.289Z,99730.00
2018-08-12T19:54:42.324Z,99727.00
2018-08-12T19:57:21.005Z,99731.00
2018-08-12T19:59:58.691Z,99729.00
2018-08-12T20:02:35.728Z,99726.00
2018-08-12T20:05:12.499Z,99726.00
2018-08-12T20:07:49.028Z,99722.00
2018-08-12T20:10:25.088Z,99729.00
2018-08-12T20:13:02.077Z,99728.00
2018-08-12T20:15:39.580Z,99726.00
2018-08-12T20:18:16.457Z,99727.00
2018-08-12T20:20:53.172Z,99728.00
2018-08-12T20:23:32.202Z,99726.00
2018-08-12T20:26:09.563Z,99729.00
2018-08-12T20:28:47.495Z,99730.00
2018-08-12T20:31:23.860Z,99733.00
2018-08-12T20:34:01.074Z,99729.00
2018-08-12T20:36:38.537Z,99734.00
2018-08-12T20:39:17.244Z,99737.00
2018-08-12T20:41:53.991Z,99738.00
2018-08-12T20:44:30.075Z,99732.00
2018-08-12T20:47:07.624Z,99733.00
2018-08-12T20:49:45.932Z,99730.00
2018-08-12T20:52:30.277Z,99732.00
2018-08-12T20:55:09.392Z,99728.00
2018-08-12T20:57:45.874Z,99721.00
2018-08-12T21:00:23.847Z,99723.00
2018-08-12T21:03:01.676Z,99723.00
2018-08-12T21:05:37.733Z,99730.00
2018-08-12T21:08:14.493Z,99725.00
2018-08-12T21:10:51.121Z,99723.00
2018-08-12T21:13:29.642Z,99722.00
2018-08-12T21:16:06.217Z,99723.00
2018-08-12T21:18:42.824Z,99716.00
2018-08-12T21:21:19.748Z,99711.00
2018-08-12T21:23:56.301Z,99716.00
2018-08-12T21:26:32.810Z,99712.00
2018-08-12T21:29:08.757Z,99708.00
2018-08-12T21:31:46.319Z,99710.00
2018-08-12T21:34:24.816Z,99713.00
2018-08-12T21:37:02.663Z,99712.00
2018-08-12T21:39:39.244Z,99702.00
2018-08-12T21:42:17.651Z,99704.00
2018-08-12T21:44:56.330Z,99700.00
2018-08-12T21:47:34.026Z,99700.00
2018-08-12T21:50:11.660Z,99699.00
2018-08-12T21:52:48.144Z,99697.00
2018-08-12T21:55:24.983Z,99695.00
2018-08-12T21:58:02.018Z,99696.00
2018-08-12T22:00:39.475Z,99698.00
2018-08-12T22:03:17.022Z,99693.00
2018-08-12T22:05:55.824Z,99691.00
2018-08-12T22:08:33.510Z,99690.00
2018-08-12T22:11:09.938Z,99685.00
2018-08-12T22:13:46.254Z,99685.00
2018-08-12T22:16:24.017Z,99689.00
2018-08-12T22:19:00.589Z,99689.00
2018-08-12T22:21:38.061Z,99689.00
2018-08-12T22:24:15.536Z,99688.00
2018-08-12T22:26:52.997Z,99687.00
2018-08-12T22:29:31.681Z,99685.00
2018-08-12T22:32:09.547Z,99686.00
2018-08-12T22:34:47.668Z,99679.00
2018-08-12T22:37:24.978Z,99680.00
2018-08-12T22:40:02.043Z,99682.00
2018-08-12T22:42:38.473Z,99676.00
2018-08-12T22:45:15.057Z,99671.00
2018-08-12T22:47:51.756Z,99672.00
2018-08-12T22:50:30.287Z,99673.00
2018-08-12T22:53:08.149Z,99671.00
2018-08-12T22:55:45.806Z,99671.00
2018-08-12T22:58:23.136Z,99662.00
2018-08-12T23:00:58.853Z,99668.00
2018-08-12T23:03:38.654Z,99664.00
2018-08-12T23:06:20.648Z,99667.00
2018-08-12T23:08:58.533Z,99667.00
2018-08-12T23:11:35.974Z,99659.00
2018-08-12T23:14:13.224Z,99666.00
2018-08-12T23:16:59.866Z,99659.00
2018-08-12T23:19:36.675Z,99660.00
2018-08-12T23:22:14.243Z,99655.00
2018-08-12T23:24:51.425Z,99658.00
2018-08-12T23:27:28.061Z,99655.00
2018-08-12T23:30:05.226Z,99654.00
2018-08-12T23:32:41.881Z,99646.00
2018-08-12T23:35:18.653Z,99648.00
2018-08-12T23:37:57.106Z,99649.00
2018-08-12T23:40:33.553Z,99647.00
2018-08-12T23:43:11.126Z,99647.00
2018-08-12T23:45:48.889Z,99647.00
2018-08-12T23:48:25.537Z,99648.00
2018-08-12T23:51:02.858Z,99637.00
2018-08-12T23:53:43.904Z,99637.00
2018-08-12T23:56:19.589Z,99639.00
2018-08-12T23:58:56.822Z,99639.00
